sensor_id;sensor_type;location;lat;lon;timestamp;P1;durP1;ratioP1;P2;durP2;ratioP2
33864;SDS011;20159;51.072;13.526;2022-07-29T00:00:41;2.60;;;1.48;;
33864;SDS011;20159;51.072;13.526;2022-07-29T00:03:30;3.15;;;1.30;;
33864;SDS011;20159;51.072;13.526;2022-07-29T00:05:56;2.85;;;1.13;;
33864;SDS011;20159;51.072;13.526;2022-07-29T00:08:26;5.75;;;1.70;;
33864;SDS011;20159;51.072;13.526;2022-07-29T00:11:10;2.35;;;1.08;;
33864;SDS011;20159;51.072;13.526;2022-07-29T00:13:53;2.40;;;1.40;;
33864;SDS011;20159;51.072;13.526;2022-07-29T00:16:18;3.10;;;1.65;;
33864;SDS011;20159;51.072;13.526;2022-07-29T00:18:44;2.92;;;1.30;;
33864;SDS011;20159;51.072;13.526;2022-07-29T00:21:10;2.47;;;1.40;;
33864;SDS011;20159;51.072;13.526;2022-07-29T00:23:35;3.00;;;1.23;;
33864;SDS011;20159;51.072;13.526;2022-07-29T00:26:01;4.05;;;1.30;;
33864;SDS011;20159;51.072;13.526;2022-07-29T00:28:26;3.00;;;1.50;;
33864;SDS011;20159;51.072;13.526;2022-07-29T00:30:52;2.88;;;1.40;;
33864;SDS011;20159;51.072;13.526;2022-07-29T00:33:17;4.57;;;1.35;;
33864;SDS011;20159;51.072;13.526;2022-07-29T00:35:43;3.25;;;1.58;;
33864;SDS011;20159;51.072;13.526;2022-07-29T00:38:08;4.15;;;1.60;;
33864;SDS011;20159;51.072;13.526;2022-07-29T00:40:35;5.45;;;1.65;;
33864;SDS011;20159;51.072;13.526;2022-07-29T00:43:00;2.60;;;1.38;;
33864;SDS011;20159;51.072;13.526;2022-07-29T00:45:26;2.78;;;1.38;;
33864;SDS011;20159;51.072;13.526;2022-07-29T00:47:52;2.20;;;1.10;;
33864;SDS011;20159;51.072;13.526;2022-07-29T00:50:18;2.67;;;1.55;;
33864;SDS011;20159;51.072;13.526;2022-07-29T00:52:43;2.42;;;1.45;;
33864;SDS011;20159;51.072;13.526;2022-07-29T00:55:10;2.97;;;1.35;;
33864;SDS011;20159;51.072;13.526;2022-07-29T00:57:38;2.90;;;1.30;;
33864;SDS011;20159;51.072;13.526;2022-07-29T01:00:05;2.25;;;1.30;;
33864;SDS011;20159;51.072;13.526;2022-07-29T01:02:33;4.25;;;1.60;;
33864;SDS011;20159;51.072;13.526;2022-07-29T01:04:59;2.83;;;1.60;;
33864;SDS011;20159;51.072;13.526;2022-07-29T01:07:25;3.30;;;1.67;;
33864;SDS011;20159;51.072;13.526;2022-07-29T01:09:52;4.15;;;1.75;;
33864;SDS011;20159;51.072;13.526;2022-07-29T01:12:25;3.78;;;1.63;;
33864;SDS011;20159;51.072;13.526;2022-07-29T01:14:53;2.72;;;1.50;;
33864;SDS011;20159;51.072;13.526;2022-07-29T01:17:21;2.70;;;1.40;;
33864;SDS011;20159;51.072;13.526;2022-07-29T01:19:58;2.40;;;1.33;;
33864;SDS011;20159;51.072;13.526;2022-07-29T01:31:03;3.08;;;1.58;;
33864;SDS011;20159;51.072;13.526;2022-07-29T01:33:31;3.67;;;1.42;;
33864;SDS011;20159;51.072;13.526;2022-07-29T01:36:19;4.20;;;1.65;;
33864;SDS011;20159;51.072;13.526;2022-07-29T01:38:54;2.20;;;1.75;;
33864;SDS011;20159;51.072;13.526;2022-07-29T01:41:27;3.42;;;1.60;;
33864;SDS011;20159;51.072;13.526;2022-07-29T01:43:59;3.25;;;1.58;;
33864;SDS011;20159;51.072;13.526;2022-07-29T01:46:30;2.83;;;1.55;;
33864;SDS011;20159;51.072;13.526;2022-07-29T01:49:06;3.35;;;1.92;;
33864;SDS011;20159;51.072;13.526;2022-07-29T01:51:38;2.63;;;1.60;;
33864;SDS011;20159;51.072;13.526;2022-07-29T01:56:47;7.55;;;1.90;;
33864;SDS011;20159;51.072;13.526;2022-07-29T01:59:14;4.15;;;1.95;;
33864;SDS011;20159;51.072;13.526;2022-07-29T02:01:42;4.75;;;1.75;;
33864;SDS011;20159;51.072;13.526;2022-07-29T02:04:10;2.78;;;1.75;;
33864;SDS011;20159;51.072;13.526;2022-07-29T02:06:38;3.25;;;1.60;;
33864;SDS011;20159;51.072;13.526;2022-07-29T02:09:05;4.63;;;1.92;;
33864;SDS011;20159;51.072;13.526;2022-07-29T02:11:33;2.70;;;1.63;;
33864;SDS011;20159;51.072;13.526;2022-07-29T02:14:01;4.28;;;1.60;;
33864;SDS011;20159;51.072;13.526;2022-07-29T02:16:30;3.20;;;2.00;;
33864;SDS011;20159;51.072;13.526;2022-07-29T02:19:01;5.03;;;1.52;;
33864;SDS011;20159;51.072;13.526;2022-07-29T02:21:29;4.68;;;2.05;;
33864;SDS011;20159;51.072;13.526;2022-07-29T02:23:57;3.90;;;1.85;;
33864;SDS011;20159;51.072;13.526;2022-07-29T02:26:25;3.97;;;2.20;;
33864;SDS011;20159;51.072;13.526;2022-07-29T02:28:54;3.13;;;2.05;;
33864;SDS011;20159;51.072;13.526;2022-07-29T02:31:23;3.35;;;1.80;;
33864;SDS011;20159;51.072;13.526;2022-07-29T02:33:51;3.20;;;1.92;;
33864;SDS011;20159;51.072;13.526;2022-07-29T02:36:17;3.97;;;1.95;;
33864;SDS011;20159;51.072;13.526;2022-07-29T02:38:47;3.83;;;1.83;;
33864;SDS011;20159;51.072;13.526;2022-07-29T02:41:17;4.97;;;2.42;;
33864;SDS011;20159;51.072;13.526;2022-07-29T02:43:55;4.13;;;2.20;;
33864;SDS011;20159;51.072;13.526;2022-07-29T02:46:27;3.85;;;2.00;;
33864;SDS011;20159;51.072;13.526;2022-07-29T02:52:08;4.70;;;2.70;;
33864;SDS011;20159;51.072;13.526;2022-07-29T02:54:45;13.52;;;3.20;;
33864;SDS011;20159;51.072;13.526;2022-07-29T02:57:42;3.78;;;2.65;;
33864;SDS011;20159;51.072;13.526;2022-07-29T03:00:12;5.07;;;2.97;;
33864;SDS011;20159;51.072;13.526;2022-07-29T03:02:43;5.65;;;3.08;;
33864;SDS011;20159;51.072;13.526;2022-07-29T03:05:15;5.43;;;3.10;;
33864;SDS011;20159;51.072;13.526;2022-07-29T03:07:49;6.95;;;3.85;;
33864;SDS011;20159;51.072;13.526;2022-07-29T03:10:19;7.30;;;3.22;;
33864;SDS011;20159;51.072;13.526;2022-07-29T03:12:45;5.50;;;3.42;;
33864;SDS011;20159;51.072;13.526;2022-07-29T03:15:12;7.75;;;3.15;;
33864;SDS011;20159;51.072;13.526;2022-07-29T03:17:39;4.30;;;3.20;;
33864;SDS011;20159;51.072;13.526;2022-07-29T03:20:05;4.72;;;3.10;;
33864;SDS011;20159;51.072;13.526;2022-07-29T03:22:32;4.53;;;3.08;;
33864;SDS011;20159;51.072;13.526;2022-07-29T03:25:08;5.82;;;3.35;;
33864;SDS011;20159;51.072;13.526;2022-07-29T03:27:41;4.80;;;3.50;;
33864;SDS011;20159;51.072;13.526;2022-07-29T03:30:07;4.53;;;3.17;;
33864;SDS011;20159;51.072;13.526;2022-07-29T03:32:34;5.38;;;4.03;;
33864;SDS011;20159;51.072;13.526;2022-07-29T03:35:00;7.93;;;4.40;;
33864;SDS011;20159;51.072;13.526;2022-07-29T03:37:25;8.57;;;3.50;;
33864;SDS011;20159;51.072;13.526;2022-07-29T03:39:52;5.75;;;4.28;;
33864;SDS011;20159;51.072;13.526;2022-07-29T03:42:20;8.13;;;3.97;;
33864;SDS011;20159;51.072;13.526;2022-07-29T03:44:48;5.53;;;4.15;;
33864;SDS011;20159;51.072;13.526;2022-07-29T03:47:15;7.10;;;3.90;;
33864;SDS011;20159;51.072;13.526;2022-07-29T03:49:47;6.65;;;4.38;;
33864;SDS011;20159;51.072;13.526;2022-07-29T03:52:15;8.68;;;3.80;;
33864;SDS011;20159;51.072;13.526;2022-07-29T03:54:41;6.63;;;3.85;;
33864;SDS011;20159;51.072;13.526;2022-07-29T03:57:07;6.82;;;3.95;;
33864;SDS011;20159;51.072;13.526;2022-07-29T03:59:36;6.20;;;3.95;;
33864;SDS011;20159;51.072;13.526;2022-07-29T04:02:03;8.48;;;4.70;;
33864;SDS011;20159;51.072;13.526;2022-07-29T04:04:32;7.10;;;4.05;;
33864;SDS011;20159;51.072;13.526;2022-07-29T04:06:59;8.00;;;4.15;;
33864;SDS011;20159;51.072;13.526;2022-07-29T04:09:24;5.63;;;3.97;;
33864;SDS011;20159;51.072;13.526;2022-07-29T04:11:50;10.73;;;4.35;;
33864;SDS011;20159;51.072;13.526;2022-07-29T04:14:16;8.07;;;3.95;;
33864;SDS011;20159;51.072;13.526;2022-07-29T04:16:42;7.25;;;3.90;;
33864;SDS011;20159;51.072;13.526;2022-07-29T04:19:07;8.90;;;4.53;;
33864;SDS011;20159;51.072;13.526;2022-07-29T04:21:36;6.45;;;4.10;;
33864;SDS011;20159;51.072;13.526;2022-07-29T04:24:03;7.88;;;4.38;;
33864;SDS011;20159;51.072;13.526;2022-07-29T04:26:28;7.95;;;4.43;;
33864;SDS011;20159;51.072;13.526;2022-07-29T04:28:54;7.13;;;4.60;;
33864;SDS011;20159;51.072;13.526;2022-07-29T04:31:19;6.88;;;4.78;;
33864;SDS011;20159;51.072;13.526;2022-07-29T04:33:45;8.77;;;4.38;;
33864;SDS011;20159;51.072;13.526;2022-07-29T04:36:11;10.05;;;4.53;;
33864;SDS011;20159;51.072;13.526;2022-07-29T04:38:37;7.13;;;4.47;;
33864;SDS011;20159;51.072;13.526;2022-07-29T04:41:03;6.25;;;4.20;;
33864;SDS011;20159;51.072;13.526;2022-07-29T04:43:28;8.30;;;4.70;;
33864;SDS011;20159;51.072;13.526;2022-07-29T04:45:54;7.07;;;4.63;;
33864;SDS011;20159;51.072;13.526;2022-07-29T04:48:19;8.75;;;5.43;;
33864;SDS011;20159;51.072;13.526;2022-07-29T04:50:45;10.80;;;6.03;;
33864;SDS011;20159;51.072;13.526;2022-07-29T04:53:10;8.45;;;5.38;;
33864;SDS011;20159;51.072;13.526;2022-07-29T04:55:36;13.00;;;6.38;;
33864;SDS011;20159;51.072;13.526;2022-07-29T04:58:01;10.45;;;6.85;;
33864;SDS011;20159;51.072;13.526;2022-07-29T05:00:27;8.88;;;5.82;;
33864;SDS011;20159;51.072;13.526;2022-07-29T05:02:52;9.98;;;6.53;;
33864;SDS011;20159;51.072;13.526;2022-07-29T05:05:18;10.60;;;6.40;;
33864;SDS011;20159;51.072;13.526;2022-07-29T05:07:43;8.35;;;5.57;;
33864;SDS011;20159;51.072;13.526;2022-07-29T05:10:09;10.82;;;6.82;;
33864;SDS011;20159;51.072;13.526;2022-07-29T05:12:35;9.77;;;6.20;;
33864;SDS011;20159;51.072;13.526;2022-07-29T05:15:00;8.45;;;5.78;;
33864;SDS011;20159;51.072;13.526;2022-07-29T05:17:26;9.57;;;5.93;;
33864;SDS011;20159;51.072;13.526;2022-07-29T05:19:51;9.40;;;5.72;;
33864;SDS011;20159;51.072;13.526;2022-07-29T05:22:20;10.02;;;6.00;;
33864;SDS011;20159;51.072;13.526;2022-07-29T05:24:46;10.88;;;6.22;;
33864;SDS011;20159;51.072;13.526;2022-07-29T05:27:11;10.85;;;6.40;;
33864;SDS011;20159;51.072;13.526;2022-07-29T05:29:37;16.13;;;5.85;;
33864;SDS011;20159;51.072;13.526;2022-07-29T05:32:03;8.35;;;5.28;;
33864;SDS011;20159;51.072;13.526;2022-07-29T05:34:31;9.02;;;5.93;;
33864;SDS011;20159;51.072;13.526;2022-07-29T05:36:57;10.52;;;6.18;;
33864;SDS011;20159;51.072;13.526;2022-07-29T05:39:23;12.13;;;6.72;;
33864;SDS011;20159;51.072;13.526;2022-07-29T05:41:49;10.50;;;6.93;;
33864;SDS011;20159;51.072;13.526;2022-07-29T05:44:14;10.05;;;6.55;;
33864;SDS011;20159;51.072;13.526;2022-07-29T05:46:40;14.38;;;7.15;;
33864;SDS011;20159;51.072;13.526;2022-07-29T05:49:05;12.82;;;7.63;;
33864;SDS011;20159;51.072;13.526;2022-07-29T05:51:32;14.02;;;7.30;;
33864;SDS011;20159;51.072;13.526;2022-07-29T05:53:58;13.90;;;9.10;;
33864;SDS011;20159;51.072;13.526;2022-07-29T05:56:24;17.83;;;10.23;;
33864;SDS011;20159;51.072;13.526;2022-07-29T05:58:49;25.00;;;12.65;;
33864;SDS011;20159;51.072;13.526;2022-07-29T06:01:15;26.83;;;14.45;;
33864;SDS011;20159;51.072;13.526;2022-07-29T06:03:41;35.60;;;18.67;;
33864;SDS011;20159;51.072;13.526;2022-07-29T06:06:07;40.35;;;19.92;;
33864;SDS011;20159;51.072;13.526;2022-07-29T06:08:32;33.60;;;20.88;;
33864;SDS011;20159;51.072;13.526;2022-07-29T06:10:59;50.20;;;25.95;;
33864;SDS011;20159;51.072;13.526;2022-07-29T06:13:25;51.17;;;32.80;;
33864;SDS011;20159;51.072;13.526;2022-07-29T06:15:50;69.18;;;41.17;;
33864;SDS011;20159;51.072;13.526;2022-07-29T06:18:16;66.35;;;41.10;;
33864;SDS011;20159;51.072;13.526;2022-07-29T06:20:42;63.55;;;39.03;;
33864;SDS011;20159;51.072;13.526;2022-07-29T06:23:07;65.20;;;35.75;;
33864;SDS011;20159;51.072;13.526;2022-07-29T06:25:34;53.42;;;31.77;;
33864;SDS011;20159;51.072;13.526;2022-07-29T06:28:01;56.53;;;30.65;;
33864;SDS011;20159;51.072;13.526;2022-07-29T06:30:27;48.45;;;29.15;;
33864;SDS011;20159;51.072;13.526;2022-07-29T06:32:54;48.47;;;30.20;;
33864;SDS011;20159;51.072;13.526;2022-07-29T06:35:19;48.50;;;28.88;;
33864;SDS011;20159;51.072;13.526;2022-07-29T06:37:45;49.75;;;29.80;;
33864;SDS011;20159;51.072;13.526;2022-07-29T06:40:10;52.65;;;31.02;;
33864;SDS011;20159;51.072;13.526;2022-07-29T06:42:55;51.78;;;28.50;;
33864;SDS011;20159;51.072;13.526;2022-07-29T06:45:20;47.70;;;29.52;;
33864;SDS011;20159;51.072;13.526;2022-07-29T06:47:46;45.83;;;28.60;;
33864;SDS011;20159;51.072;13.526;2022-07-29T06:50:11;51.95;;;30.63;;
33864;SDS011;20159;51.072;13.526;2022-07-29T06:52:37;53.28;;;31.55;;
33864;SDS011;20159;51.072;13.526;2022-07-29T06:55:03;51.28;;;30.35;;
33864;SDS011;20159;51.072;13.526;2022-07-29T06:57:30;47.63;;;28.90;;
33864;SDS011;20159;51.072;13.526;2022-07-29T06:59:58;46.35;;;29.88;;
33864;SDS011;20159;51.072;13.526;2022-07-29T07:02:23;46.22;;;29.00;;
33864;SDS011;20159;51.072;13.526;2022-07-29T07:04:49;47.00;;;27.65;;
33864;SDS011;20159;51.072;13.526;2022-07-29T07:07:15;47.92;;;26.90;;
33864;SDS011;20159;51.072;13.526;2022-07-29T07:09:40;39.35;;;24.88;;
33864;SDS011;20159;51.072;13.526;2022-07-29T07:12:06;39.47;;;24.83;;
33864;SDS011;20159;51.072;13.526;2022-07-29T07:14:32;41.38;;;25.40;;
33864;SDS011;20159;51.072;13.526;2022-07-29T07:16:57;40.95;;;24.05;;
33864;SDS011;20159;51.072;13.526;2022-07-29T07:19:25;39.55;;;23.33;;
33864;SDS011;20159;51.072;13.526;2022-07-29T07:21:51;36.05;;;22.25;;
33864;SDS011;20159;51.072;13.526;2022-07-29T07:24:17;38.70;;;21.13;;
33864;SDS011;20159;51.072;13.526;2022-07-29T07:26:43;34.65;;;21.10;;
33864;SDS011;20159;51.072;13.526;2022-07-29T07:29:08;35.22;;;21.00;;
33864;SDS011;20159;51.072;13.526;2022-07-29T07:31:35;29.50;;;18.73;;
33864;SDS011;20159;51.072;13.526;2022-07-29T07:34:01;26.73;;;17.17;;
33864;SDS011;20159;51.072;13.526;2022-07-29T07:36:27;29.35;;;17.58;;
33864;SDS011;20159;51.072;13.526;2022-07-29T07:38:53;24.80;;;15.18;;
33864;SDS011;20159;51.072;13.526;2022-07-29T07:41:18;24.23;;;14.48;;
33864;SDS011;20159;51.072;13.526;2022-07-29T07:43:43;24.15;;;15.07;;
33864;SDS011;20159;51.072;13.526;2022-07-29T07:46:09;25.55;;;15.18;;
33864;SDS011;20159;51.072;13.526;2022-07-29T07:48:34;23.85;;;13.52;;
33864;SDS011;20159;51.072;13.526;2022-07-29T07:51:00;24.35;;;14.05;;
33864;SDS011;20159;51.072;13.526;2022-07-29T07:53:26;22.52;;;13.38;;
33864;SDS011;20159;51.072;13.526;2022-07-29T07:55:52;20.98;;;12.43;;
33864;SDS011;20159;51.072;13.526;2022-07-29T07:58:17;20.55;;;12.85;;
33864;SDS011;20159;51.072;13.526;2022-07-29T08:00:43;19.10;;;12.20;;
33864;SDS011;20159;51.072;13.526;2022-07-29T08:03:08;19.40;;;10.90;;
33864;SDS011;20159;51.072;13.526;2022-07-29T08:05:37;19.63;;;10.85;;
33864;SDS011;20159;51.072;13.526;2022-07-29T08:08:03;19.20;;;9.60;;
33864;SDS011;20159;51.072;13.526;2022-07-29T08:10:28;19.85;;;9.50;;
33864;SDS011;20159;51.072;13.526;2022-07-29T08:13:13;13.18;;;7.68;;
33864;SDS011;20159;51.072;13.526;2022-07-29T08:15:39;14.15;;;8.40;;
33864;SDS011;20159;51.072;13.526;2022-07-29T08:18:06;13.57;;;7.65;;
33864;SDS011;20159;51.072;13.526;2022-07-29T08:20:32;10.50;;;6.40;;
33864;SDS011;20159;51.072;13.526;2022-07-29T08:23:00;11.43;;;6.70;;
33864;SDS011;20159;51.072;13.526;2022-07-29T08:25:26;11.90;;;7.60;;
33864;SDS011;20159;51.072;13.526;2022-07-29T08:27:51;12.32;;;6.75;;
33864;SDS011;20159;51.072;13.526;2022-07-29T08:30:17;10.73;;;7.05;;
33864;SDS011;20159;51.072;13.526;2022-07-29T08:32:42;15.35;;;7.43;;
33864;SDS011;20159;51.072;13.526;2022-07-29T08:35:08;9.93;;;6.18;;
33864;SDS011;20159;51.072;13.526;2022-07-29T08:37:34;11.27;;;6.82;;
33864;SDS011;20159;51.072;13.526;2022-07-29T08:39:59;12.48;;;6.60;;
33864;SDS011;20159;51.072;13.526;2022-07-29T08:42:25;11.30;;;6.47;;
33864;SDS011;20159;51.072;13.526;2022-07-29T08:44:50;13.88;;;7.30;;
33864;SDS011;20159;51.072;13.526;2022-07-29T08:47:16;9.73;;;6.53;;
33864;SDS011;20159;51.072;13.526;2022-07-29T08:49:42;8.55;;;5.25;;
33864;SDS011;20159;51.072;13.526;2022-07-29T08:52:10;10.07;;;5.40;;
33864;SDS011;20159;51.072;13.526;2022-07-29T08:54:36;9.88;;;5.00;;
33864;SDS011;20159;51.072;13.526;2022-07-29T08:57:03;8.20;;;4.80;;
33864;SDS011;20159;51.072;13.526;2022-07-29T08:59:30;8.20;;;4.22;;
33864;SDS011;20159;51.072;13.526;2022-07-29T09:01:57;8.75;;;4.57;;
33864;SDS011;20159;51.072;13.526;2022-07-29T09:04:25;9.82;;;4.60;;
33864;SDS011;20159;51.072;13.526;2022-07-29T09:06:54;8.80;;;3.90;;
33864;SDS011;20159;51.072;13.526;2022-07-29T09:09:23;8.02;;;3.63;;
33864;SDS011;20159;51.072;13.526;2022-07-29T09:11:49;6.70;;;4.03;;
33864;SDS011;20159;51.072;13.526;2022-07-29T09:14:15;5.63;;;3.50;;
33864;SDS011;20159;51.072;13.526;2022-07-29T09:16:45;4.18;;;2.90;;
33864;SDS011;20159;51.072;13.526;2022-07-29T09:19:19;7.90;;;3.85;;
33864;SDS011;20159;51.072;13.526;2022-07-29T09:21:48;6.05;;;3.22;;
33864;SDS011;20159;51.072;13.526;2022-07-29T09:24:23;5.32;;;3.15;;
33864;SDS011;20159;51.072;13.526;2022-07-29T09:26:50;7.28;;;3.38;;
33864;SDS011;20159;51.072;13.526;2022-07-29T09:29:16;6.60;;;3.53;;
33864;SDS011;20159;51.072;13.526;2022-07-29T09:31:44;7.90;;;4.07;;
33864;SDS011;20159;51.072;13.526;2022-07-29T09:34:12;8.93;;;3.75;;
33864;SDS011;20159;51.072;13.526;2022-07-29T09:36:41;11.25;;;4.43;;
33864;SDS011;20159;51.072;13.526;2022-07-29T09:39:07;7.68;;;4.05;;
33864;SDS011;20159;51.072;13.526;2022-07-29T09:41:50;6.22;;;4.10;;
33864;SDS011;20159;51.072;13.526;2022-07-29T09:44:20;7.47;;;3.80;;
33864;SDS011;20159;51.072;13.526;2022-07-29T09:46:57;10.63;;;4.00;;
33864;SDS011;20159;51.072;13.526;2022-07-29T09:49:31;8.00;;;4.13;;
33864;SDS011;20159;51.072;13.526;2022-07-29T09:51:59;5.90;;;3.95;;
33864;SDS011;20159;51.072;13.526;2022-07-29T09:54:34;5.65;;;3.38;;
33864;SDS011;20159;51.072;13.526;2022-07-29T09:57:04;6.03;;;3.97;;
33864;SDS011;20159;51.072;13.526;2022-07-29T09:59:32;7.07;;;4.38;;
33864;SDS011;20159;51.072;13.526;2022-07-29T10:01:58;9.52;;;4.20;;
33864;SDS011;20159;51.072;13.526;2022-07-29T10:04:35;9.68;;;4.25;;
33864;SDS011;20159;51.072;13.526;2022-07-29T10:07:05;8.82;;;4.53;;
33864;SDS011;20159;51.072;13.526;2022-07-29T10:09:31;8.55;;;5.25;;
33864;SDS011;20159;51.072;13.526;2022-07-29T10:14:34;11.02;;;5.63;;
33864;SDS011;20159;51.072;13.526;2022-07-29T10:17:01;7.85;;;4.72;;
33864;SDS011;20159;51.072;13.526;2022-07-29T10:19:28;7.88;;;5.15;;
33864;SDS011;20159;51.072;13.526;2022-07-29T10:21:56;7.45;;;5.18;;
33864;SDS011;20159;51.072;13.526;2022-07-29T10:24:26;8.38;;;4.95;;
33864;SDS011;20159;51.072;13.526;2022-07-29T10:26:57;9.45;;;5.95;;
33864;SDS011;20159;51.072;13.526;2022-07-29T10:29:24;8.40;;;5.28;;
33864;SDS011;20159;51.072;13.526;2022-07-29T10:34:52;8.32;;;5.20;;
33864;SDS011;20159;51.072;13.526;2022-07-29T10:37:27;8.43;;;4.90;;
33864;SDS011;20159;51.072;13.526;2022-07-29T10:40:17;8.20;;;5.07;;
33864;SDS011;20159;51.072;13.526;2022-07-29T10:43:31;8.45;;;5.80;;
33864;SDS011;20159;51.072;13.526;2022-07-29T10:46:01;7.50;;;5.45;;
33864;SDS011;20159;51.072;13.526;2022-07-29T10:48:28;9.10;;;5.55;;
33864;SDS011;20159;51.072;13.526;2022-07-29T10:51:03;11.10;;;5.30;;
33864;SDS011;20159;51.072;13.526;2022-07-29T10:53:49;8.75;;;5.70;;
33864;SDS011;20159;51.072;13.526;2022-07-29T10:56:26;7.88;;;5.18;;
33864;SDS011;20159;51.072;13.526;2022-07-29T10:59:22;12.23;;;6.07;;
33864;SDS011;20159;51.072;13.526;2022-07-29T11:01:49;10.70;;;6.53;;
33864;SDS011;20159;51.072;13.526;2022-07-29T11:04:16;12.82;;;7.38;;
33864;SDS011;20159;51.072;13.526;2022-07-29T11:09:31;12.38;;;7.45;;
33864;SDS011;20159;51.072;13.526;2022-07-29T11:11:57;11.40;;;7.57;;
33864;SDS011;20159;51.072;13.526;2022-07-29T11:17:22;12.32;;;7.07;;
33864;SDS011;20159;51.072;13.526;2022-07-29T11:19:48;9.00;;;5.85;;
33864;SDS011;20159;51.072;13.526;2022-07-29T11:22:33;7.78;;;5.75;;
33864;SDS011;20159;51.072;13.526;2022-07-29T11:25:18;8.18;;;4.80;;
33864;SDS011;20159;51.072;13.526;2022-07-29T11:27:44;7.00;;;4.50;;
33864;SDS011;20159;51.072;13.526;2022-07-29T11:30:10;6.60;;;3.88;;
33864;SDS011;20159;51.072;13.526;2022-07-29T11:32:37;8.13;;;4.05;;
33864;SDS011;20159;51.072;13.526;2022-07-29T11:37:38;7.22;;;3.50;;
33864;SDS011;20159;51.072;13.526;2022-07-29T11:45:01;6.60;;;3.50;;
33864;SDS011;20159;51.072;13.526;2022-07-29T11:47:38;4.83;;;3.33;;
33864;SDS011;20159;51.072;13.526;2022-07-29T11:50:06;4.35;;;2.95;;
33864;SDS011;20159;51.072;13.526;2022-07-29T11:52:35;3.42;;;2.20;;
33864;SDS011;20159;51.072;13.526;2022-07-29T11:55:07;3.92;;;2.30;;
33864;SDS011;20159;51.072;13.526;2022-07-29T11:57:34;4.60;;;1.88;;
33864;SDS011;20159;51.072;13.526;2022-07-29T12:00:01;2.95;;;1.70;;
33864;SDS011;20159;51.072;13.526;2022-07-29T12:02:42;3.95;;;1.60;;
33864;SDS011;20159;51.072;13.526;2022-07-29T12:05:08;3.88;;;1.90;;
33864;SDS011;20159;51.072;13.526;2022-07-29T12:07:38;4.60;;;1.80;;
33864;SDS011;20159;51.072;13.526;2022-07-29T12:10:04;3.33;;;1.92;;
33864;SDS011;20159;51.072;13.526;2022-07-29T12:12:31;5.80;;;1.95;;
33864;SDS011;20159;51.072;13.526;2022-07-29T12:14:57;2.88;;;1.45;;
33864;SDS011;20159;51.072;13.526;2022-07-29T12:17:26;2.17;;;1.00;;
33864;SDS011;20159;51.072;13.526;2022-07-29T12:19:54;2.33;;;1.40;;
33864;SDS011;20159;51.072;13.526;2022-07-29T12:24:53;2.28;;;1.10;;
33864;SDS011;20159;51.072;13.526;2022-07-29T12:27:19;1.70;;;1.27;;
33864;SDS011;20159;51.072;13.526;2022-07-29T12:29:54;2.10;;;1.20;;
33864;SDS011;20159;51.072;13.526;2022-07-29T12:32:46;3.42;;;1.20;;
33864;SDS011;20159;51.072;13.526;2022-07-29T12:37:44;2.90;;;1.08;;
33864;SDS011;20159;51.072;13.526;2022-07-29T12:40:13;2.28;;;1.10;;
33864;SDS011;20159;51.072;13.526;2022-07-29T12:42:41;2.40;;;1.20;;
33864;SDS011;20159;51.072;13.526;2022-07-29T12:45:29;2.95;;;1.52;;
33864;SDS011;20159;51.072;13.526;2022-07-29T12:47:55;4.53;;;1.60;;
33864;SDS011;20159;51.072;13.526;2022-07-29T12:50:21;3.00;;;1.30;;
33864;SDS011;20159;51.072;13.526;2022-07-29T12:52:47;2.90;;;1.42;;
33864;SDS011;20159;51.072;13.526;2022-07-29T12:55:13;4.40;;;1.40;;
33864;SDS011;20159;51.072;13.526;2022-07-29T12:57:46;2.50;;;1.15;;
33864;SDS011;20159;51.072;13.526;2022-07-29T13:00:13;5.22;;;1.70;;
33864;SDS011;20159;51.072;13.526;2022-07-29T13:02:40;1.73;;;1.10;;
33864;SDS011;20159;51.072;13.526;2022-07-29T13:05:07;2.92;;;1.50;;
33864;SDS011;20159;51.072;13.526;2022-07-29T13:07:34;2.55;;;1.23;;
33864;SDS011;20159;51.072;13.526;2022-07-29T13:15:30;1.95;;;1.10;;
33864;SDS011;20159;51.072;13.526;2022-07-29T13:17:57;4.70;;;1.50;;
33864;SDS011;20159;51.072;13.526;2022-07-29T13:20:27;1.88;;;1.10;;
33864;SDS011;20159;51.072;13.526;2022-07-29T13:22:54;4.90;;;1.20;;
33864;SDS011;20159;51.072;13.526;2022-07-29T13:25:28;3.05;;;1.15;;
33864;SDS011;20159;51.072;13.526;2022-07-29T13:27:56;1.60;;;0.90;;
33864;SDS011;20159;51.072;13.526;2022-07-29T13:30:23;1.50;;;1.08;;
33864;SDS011;20159;51.072;13.526;2022-07-29T13:32:49;2.47;;;1.27;;
33864;SDS011;20159;51.072;13.526;2022-07-29T13:35:15;1.98;;;1.02;;
33864;SDS011;20159;51.072;13.526;2022-07-29T13:37:41;2.75;;;1.30;;
33864;SDS011;20159;51.072;13.526;2022-07-29T13:40:07;3.10;;;1.10;;
33864;SDS011;20159;51.072;13.526;2022-07-29T13:42:34;3.45;;;1.48;;
33864;SDS011;20159;51.072;13.526;2022-07-29T13:45:00;3.42;;;1.35;;
33864;SDS011;20159;51.072;13.526;2022-07-29T13:47:26;2.85;;;1.45;;
33864;SDS011;20159;51.072;13.526;2022-07-29T13:49:52;2.85;;;1.30;;
33864;SDS011;20159;51.072;13.526;2022-07-29T13:52:18;2.00;;;1.25;;
33864;SDS011;20159;51.072;13.526;2022-07-29T13:54:44;1.80;;;1.00;;
33864;SDS011;20159;51.072;13.526;2022-07-29T13:57:10;1.67;;;1.13;;
33864;SDS011;20159;51.072;13.526;2022-07-29T13:59:36;2.35;;;1.25;;
33864;SDS011;20159;51.072;13.526;2022-07-29T14:02:02;1.83;;;1.08;;
33864;SDS011;20159;51.072;13.526;2022-07-29T14:04:28;2.22;;;1.25;;
33864;SDS011;20159;51.072;13.526;2022-07-29T14:06:53;2.50;;;1.35;;
33864;SDS011;20159;51.072;13.526;2022-07-29T14:09:19;3.13;;;1.40;;
33864;SDS011;20159;51.072;13.526;2022-07-29T14:11:44;2.13;;;1.20;;
33864;SDS011;20159;51.072;13.526;2022-07-29T14:14:11;2.50;;;1.30;;
33864;SDS011;20159;51.072;13.526;2022-07-29T14:16:36;3.60;;;1.38;;
33864;SDS011;20159;51.072;13.526;2022-07-29T14:19:02;3.08;;;1.25;;
33864;SDS011;20159;51.072;13.526;2022-07-29T14:21:27;2.30;;;1.20;;
33864;SDS011;20159;51.072;13.526;2022-07-29T14:23:53;3.28;;;1.45;;
33864;SDS011;20159;51.072;13.526;2022-07-29T14:26:19;3.20;;;1.20;;
33864;SDS011;20159;51.072;13.526;2022-07-29T14:28:46;4.00;;;1.75;;
33864;SDS011;20159;51.072;13.526;2022-07-29T14:31:12;3.17;;;1.30;;
33864;SDS011;20159;51.072;13.526;2022-07-29T14:33:37;3.22;;;1.20;;
33864;SDS011;20159;51.072;13.526;2022-07-29T14:36:03;1.25;;;0.90;;
33864;SDS011;20159;51.072;13.526;2022-07-29T14:38:29;1.80;;;1.10;;
33864;SDS011;20159;51.072;13.526;2022-07-29T14:40:54;2.97;;;1.10;;
33864;SDS011;20159;51.072;13.526;2022-07-29T14:43:20;1.65;;;1.10;;
33864;SDS011;20159;51.072;13.526;2022-07-29T14:45:45;2.47;;;1.40;;
33864;SDS011;20159;51.072;13.526;2022-07-29T14:48:11;1.80;;;1.15;;
33864;SDS011;20159;51.072;13.526;2022-07-29T14:50:36;2.53;;;1.20;;
33864;SDS011;20159;51.072;13.526;2022-07-29T14:53:03;2.97;;;1.27;;
33864;SDS011;20159;51.072;13.526;2022-07-29T14:55:28;2.95;;;1.58;;
33864;SDS011;20159;51.072;13.526;2022-07-29T14:57:54;3.20;;;1.48;;
33864;SDS011;20159;51.072;13.526;2022-07-29T15:00:20;3.67;;;1.17;;
33864;SDS011;20159;51.072;13.526;2022-07-29T15:02:46;2.75;;;1.42;;
33864;SDS011;20159;51.072;13.526;2022-07-29T15:05:12;1.88;;;1.10;;
33864;SDS011;20159;51.072;13.526;2022-07-29T15:07:37;3.92;;;1.30;;
33864;SDS011;20159;51.072;13.526;2022-07-29T15:10:03;5.53;;;2.08;;
33864;SDS011;20159;51.072;13.526;2022-07-29T15:12:29;2.22;;;1.50;;
33864;SDS011;20159;51.072;13.526;2022-07-29T15:14:55;1.95;;;1.30;;
33864;SDS011;20159;51.072;13.526;2022-07-29T15:17:21;1.75;;;1.35;;